Terminal Aerodrome Forecast
Issued by NWS

Home | Current Version | Previous Version | Text Only | Print | Product List | Glossary On
Versions: 1 2 3 4 5 6 7 8 9 10 11 12 13
000
FTUS44 KCRP 271100
TAFLRD
TAF
KLRD 271126Z 2712/2812 VRB04KT P6SM SCT035
     FM271800 05008KT P6SM SCT060
     FM280000 10010KT P6SM FEW110=

USA.gov is the U.S. government's official web portal to all federal, state and local government web resources and services.